Time;durP1;ratioP1;P1;durP2;ratioP2;P2;SDS_P1;SDS_P2;PMS_P1;PMS_P2;Temp;Humidity;BMP_temperature;BMP_pressure;BME280_temperature;BME280_humidity;BME280_pressure;Samples;Min_cycle;Max_cycle;Signal;HPM_P1;HPM_P2
2022/10/02 00:01:47;;;;;;;12.27;7.90;;;15.50;99.90;;;;;;5115876;28;20238;-69
2022/10/02 00:04:16;;;;;;;9.23;7.40;;;15.50;99.90;;;;;;5116755;27;20590;-69
2022/10/02 00:06:46;;;;;;;10.23;7.37;;;15.40;99.90;;;;;;5136344;27;20570;-70
2022/10/02 00:09:20;;;;;;;10.40;7.63;;;15.50;99.90;;;;;;5136351;27;20200;-68
2022/10/02 00:11:50;;;;;;;9.80;7.80;;;15.40;99.90;;;;;;5136392;27;20550;-70
2022/10/02 00:14:20;;;;;;;9.93;7.30;;;15.50;99.90;;;;;;5136168;27;20199;-69
2022/10/02 00:16:51;;;;;;;15.80;7.93;;;15.40;99.90;;;;;;5124360;27;20567;-69
2022/10/02 00:19:19;;;;;;;12.83;8.57;;;15.40;99.90;;;;;;5115718;28;20211;-70
2022/10/02 00:22:02;;;;;;;10.20;7.87;;;15.40;99.90;;;;;;5117142;27;20207;-68
2022/10/02 00:24:37;;;;;;;9.77;7.70;;;15.30;99.90;;;;;;5118496;27;20583;-69
2022/10/02 00:27:27;;;;;;;10.60;8.40;;;15.30;99.90;;;;;;5131488;27;20551;-70
2022/10/02 00:29:57;;;;;;;10.13;8.50;;;15.30;99.90;;;;;;5129698;27;20198;-69
2022/10/02 00:32:33;;;;;;;11.53;8.00;;;15.30;99.90;;;;;;5115710;27;20188;-68
2022/10/02 00:35:29;;;;;;;13.07;8.87;;;15.30;99.90;;;;;;5114993;28;20623;-68
2022/10/02 00:38:04;;;;;;;11.70;7.93;;;15.20;99.90;;;;;;5115010;28;20192;-70
2022/10/02 00:40:49;;;;;;;10.97;8.53;;;15.20;99.90;;;;;;5115033;28;20212;-69
2022/10/02 00:43:26;;;;;;;10.73;8.37;;;15.20;99.90;;;;;;5130929;27;20203;-69
2022/10/02 00:46:17;;;;;;;11.03;7.80;;;15.20;99.90;;;;;;5135358;27;20198;-70
2022/10/02 00:49:01;;;;;;;11.50;8.67;;;15.20;99.90;;;;;;5126266;27;20184;-70
2022/10/02 00:51:41;;;;;;;11.47;8.50;;;15.20;99.90;;;;;;5132538;27;20582;-69
2022/10/02 00:54:31;;;;;;;11.10;8.43;;;15.20;99.90;;;;;;5131730;27;20202;-70
2022/10/02 00:57:08;;;;;;;9.50;7.73;;;15.20;99.90;;;;;;5114584;28;20309;-70
2022/10/02 00:59:45;;;;;;;9.23;7.90;;;15.20;99.90;;;;;;5114435;28;20285;-69
2022/10/02 01:02:34;;;;;;;11.37;7.87;;;15.20;99.90;;;;;;5114732;28;20264;-69
2022/10/02 01:05:07;;;;;;;12.07;8.07;;;15.20;99.90;;;;;;5114262;28;20226;-69
2022/10/02 01:07:36;;;;;;;9.27;7.40;;;15.20;99.90;;;;;;5117836;27;20274;-69
2022/10/02 01:10:04;;;;;;;11.30;7.07;;;15.20;99.90;;;;;;5129206;27;20282;-69
2022/10/02 01:12:30;;;;;;;9.80;7.43;;;15.10;99.90;;;;;;5133051;27;20202;-70
2022/10/02 01:14:57;;;;;;;9.67;7.13;;;15.10;99.90;;;;;;5114062;28;20204;-68
2022/10/02 01:17:27;;;;;;;8.20;7.10;;;15.00;99.90;;;;;;5114353;28;20226;-70
2022/10/02 01:19:55;;;;;;;9.83;7.50;;;15.00;99.90;;;;;;5114123;28;20211;-70
2022/10/02 01:22:29;;;;;;;12.07;7.70;;;15.00;99.90;;;;;;5113792;28;20203;-68
2022/10/02 01:24:59;;;;;;;8.90;7.40;;;14.90;99.90;;;;;;5122395;27;20199;-69
2022/10/02 01:27:27;;;;;;;9.23;6.90;;;14.90;99.90;;;;;;5114267;28;20287;-68
2022/10/02 01:29:56;;;;;;;6.97;6.23;;;14.80;99.90;;;;;;5113565;28;20199;-68
2022/10/02 01:32:25;;;;;;;7.40;6.10;;;14.80;99.90;;;;;;5114349;28;20681;-69
2022/10/02 01:34:53;;;;;;;7.33;5.70;;;14.80;99.90;;;;;;5114099;28;20720;-69
2022/10/02 01:37:21;;;;;;;8.07;5.63;;;14.80;99.90;;;;;;5114029;28;20203;-69
2022/10/02 01:39:48;;;;;;;9.23;6.10;;;14.80;99.90;;;;;;5113217;28;20292;-69
2022/10/02 01:42:17;;;;;;;7.67;6.27;;;14.80;99.90;;;;;;5114407;27;20204;-69
2022/10/02 01:44:45;;;;;;;8.07;6.00;;;14.80;99.90;;;;;;5113532;28;20706;-69
2022/10/02 01:47:16;;;;;;;8.63;5.90;;;14.80;99.90;;;;;;5113450;28;20216;-70
2022/10/02 01:49:56;;;;;;;8.03;6.03;;;14.80;99.90;;;;;;5113585;28;20207;-69
2022/10/02 01:52:35;;;;;;;7.10;5.50;;;14.90;99.90;;;;;;5113794;28;20215;-69
2022/10/02 01:55:23;;;;;;;7.90;5.40;;;14.80;99.90;;;;;;5113660;28;20313;-68
2022/10/02 01:58:00;;;;;;;7.17;5.23;;;14.80;99.90;;;;;;5113614;27;20565;-69
2022/10/02 02:00:33;;;;;;;6.60;4.83;;;14.80;99.90;;;;;;5113483;28;20218;-68
2022/10/02 02:03:12;;;;;;;7.70;4.70;;;14.80;99.90;;;;;;5130671;27;20202;-69
2022/10/02 02:05:47;;;;;;;7.53;5.03;;;14.80;99.90;;;;;;5133696;27;20187;-69
2022/10/02 02:08:24;;;;;;;7.53;5.00;;;14.80;99.90;;;;;;5126806;27;20198;-68
2022/10/02 02:11:01;;;;;;;9.13;5.40;;;14.80;99.90;;;;;;5118078;27;20200;-69
2022/10/02 02:13:40;;;;;;;6.80;5.23;;;14.80;99.90;;;;;;5123771;27;20299;-68
2022/10/02 02:16:11;;;;;;;6.33;5.10;;;14.80;99.90;;;;;;5133331;27;20198;-69
2022/10/02 02:18:43;;;;;;;9.17;5.10;;;14.70;99.90;;;;;;5133571;27;20197;-68
2022/10/02 02:21:16;;;;;;;6.63;4.80;;;14.70;99.90;;;;;;5133047;27;20217;-68
2022/10/02 02:23:45;;;;;;;6.73;4.97;;;14.70;99.90;;;;;;5126058;27;20191;-69
2022/10/02 02:26:15;;;;;;;6.00;5.00;;;14.60;99.90;;;;;;5123272;27;20231;-68
2022/10/02 02:28:48;;;;;;;7.07;5.47;;;14.60;99.90;;;;;;5133021;27;20219;-69
2022/10/02 02:31:21;;;;;;;7.00;4.63;;;14.60;99.90;;;;;;5133896;27;20283;-70
2022/10/02 02:33:52;;;;;;;8.20;4.83;;;14.60;99.90;;;;;;5124157;27;20195;-69
2022/10/02 02:36:23;;;;;;;5.87;4.70;;;14.70;99.90;;;;;;5120482;27;20206;-69
2022/10/02 02:38:54;;;;;;;6.73;4.70;;;14.60;99.90;;;;;;5133168;27;20628;-68
2022/10/02 02:41:26;;;;;;;7.70;5.20;;;14.60;99.90;;;;;;5133473;27;20691;-68
2022/10/02 02:43:59;;;;;;;7.60;5.30;;;14.60;99.90;;;;;;5132025;27;20702;-70
2022/10/02 02:46:30;;;;;;;4.27;3.87;;;14.60;99.90;;;;;;5133210;27;20230;-71
2022/10/02 02:49:05;;;;;;;5.97;4.50;;;14.70;99.90;;;;;;5133349;27;20550;-69
2022/10/02 02:51:36;;;;;;;5.00;4.20;;;14.70;99.90;;;;;;5133258;27;20649;-69
2022/10/02 02:54:10;;;;;;;5.37;4.27;;;14.70;99.90;;;;;;5122065;27;20204;-68
2022/10/02 02:56:37;;;;;;;7.50;4.70;;;14.70;99.90;;;;;;5112826;28;20199;-68
2022/10/02 02:59:09;;;;;;;7.63;4.00;;;14.70;99.90;;;;;;5112630;28;20230;-69
2022/10/02 03:01:36;;;;;;;5.70;4.40;;;14.80;99.90;;;;;;5112701;28;20216;-69
2022/10/02 03:04:03;;;;;;;6.67;4.17;;;14.80;99.90;;;;;;5119578;27;20202;-69
2022/10/02 03:06:36;;;;;;;7.27;4.00;;;14.80;99.90;;;;;;5132426;27;20206;-69
2022/10/02 03:09:06;;;;;;;5.73;4.20;;;14.80;99.90;;;;;;5132694;27;20192;-69
2022/10/02 03:11:44;;;;;;;6.83;4.60;;;14.80;99.90;;;;;;5132392;27;20203;-69
2022/10/02 03:14:36;;;;;;;5.47;3.97;;;14.80;99.90;;;;;;5121621;28;20203;-69
2022/10/02 03:17:14;;;;;;;5.70;4.30;;;14.90;99.90;;;;;;5112413;28;20195;-70
2022/10/02 03:19:46;;;;;;;6.73;4.37;;;14.90;99.90;;;;;;5112005;28;20207;-69
2022/10/02 03:22:21;;;;;;;6.00;3.80;;;14.90;99.90;;;;;;5112012;28;20543;-69
2022/10/02 03:24:52;;;;;;;5.37;4.17;;;14.90;99.90;;;;;;5112420;28;20186;-70
2022/10/02 03:27:26;;;;;;;5.97;3.83;;;14.90;99.90;;;;;;5112039;28;20200;-70
2022/10/02 03:30:00;;;;;;;7.23;3.87;;;14.90;99.90;;;;;;5113728;28;20208;-69
2022/10/02 03:32:28;;;;;;;5.80;4.30;;;15.00;99.90;;;;;;5114840;28;20687;-69
2022/10/02 03:34:56;;;;;;;7.63;4.53;;;15.00;99.90;;;;;;5116846;28;20210;-69
2022/10/02 03:37:24;;;;;;;5.80;4.13;;;15.00;99.90;;;;;;5116259;28;20607;-70
2022/10/02 03:39:51;;;;;;;5.33;4.40;;;15.10;99.90;;;;;;5117439;27;20231;-70
2022/10/02 03:42:24;;;;;;;9.30;5.30;;;15.10;99.90;;;;;;5121529;27;20320;-68
2022/10/02 03:44:50;;;;;;;8.20;5.63;;;15.20;99.90;;;;;;5116215;28;20722;-69
2022/10/02 03:47:19;;;;;;;7.43;5.70;;;15.10;99.90;;;;;;5116435;28;20201;-69
2022/10/02 03:49:46;;;;;;;12.57;6.60;;;15.00;99.90;;;;;;5117061;27;20203;-69
2022/10/02 03:52:16;;;;;;;13.03;6.60;;;14.90;99.90;;;;;;5135620;27;20211;-68
2022/10/02 03:54:43;;;;;;;10.37;6.63;;;14.80;99.90;;;;;;5136346;27;20206;-69
2022/10/02 03:57:13;;;;;;;10.20;6.33;;;14.80;99.90;;;;;;5136465;27;20205;-68
2022/10/02 03:59:46;;;;;;;11.43;6.63;;;14.70;99.90;;;;;;5134064;27;20599;-69
2022/10/02 04:02:26;;;;;;;11.17;6.57;;;14.60;99.90;;;;;;5115614;28;20192;-70
2022/10/02 04:04:58;;;;;;;9.30;6.00;;;14.60;99.90;;;;;;5115487;28;20196;-70
2022/10/02 04:07:30;;;;;;;10.10;5.97;;;14.60;99.90;;;;;;5115253;28;20219;-69
2022/10/02 04:10:08;;;;;;;8.47;5.93;;;14.60;99.90;;;;;;5117871;27;20749;-70
2022/10/02 04:12:39;;;;;;;9.47;6.23;;;14.60;99.90;;;;;;5136175;27;20195;-70
2022/10/02 04:15:14;;;;;;;7.80;5.93;;;14.50;99.90;;;;;;5136415;27;20225;-69
2022/10/02 04:17:47;;;;;;;8.17;5.67;;;14.50;99.90;;;;;;5136304;27;20545;-68
2022/10/02 04:20:21;;;;;;;8.97;6.00;;;14.50;99.90;;;;;;5134685;27;20221;-69
2022/10/02 04:22:53;;;;;;;7.73;5.63;;;14.50;99.90;;;;;;5135608;27;20194;-68
2022/10/02 04:25:22;;;;;;;7.63;5.90;;;14.50;99.90;;;;;;5135159;27;20245;-69
2022/10/02 04:27:53;;;;;;;8.40;5.13;;;14.50;99.90;;;;;;5114672;27;20206;-70
2022/10/02 04:30:20;;;;;;;9.40;5.57;;;14.40;99.90;;;;;;5119279;27;20199;-69
2022/10/02 04:32:49;;;;;;;8.77;5.53;;;14.40;99.90;;;;;;5135594;27;20293;-69
2022/10/02 04:35:18;;;;;;;8.83;5.60;;;14.40;99.90;;;;;;5135454;27;20765;-71
2022/10/02 04:38:05;;;;;;;13.70;9.57;;;14.50;99.90;;;;;;5135433;27;20204;-68
2022/10/02 04:40:49;;;;;;;8.20;6.50;;;14.50;99.90;;;;;;5115569;27;20749;-68
2022/10/02 04:43:30;;;;;;;7.87;6.67;;;14.40;99.90;;;;;;5114490;28;20209;-69
2022/10/02 04:46:07;;;;;;;15.57;11.33;;;14.40;99.90;;;;;;5115142;28;20246;-69
2022/10/02 04:48:54;;;;;;;12.00;7.53;;;14.50;99.90;;;;;;5117250;27;20198;-68
2022/10/02 04:51:33;;;;;;;10.07;7.67;;;14.50;99.90;;;;;;5135407;27;20195;-69
2022/10/02 04:54:24;;;;;;;10.70;6.80;;;14.50;99.90;;;;;;5135818;27;20542;-71
2022/10/02 04:57:10;;;;;;;13.20;8.30;;;14.40;99.90;;;;;;5135121;27;20193;-69
2022/10/02 04:59:53;;;;;;;14.57;9.50;;;14.50;99.90;;;;;;5124986;27;20235;-69
2022/10/02 05:02:39;;;;;;;11.60;8.43;;;14.50;99.90;;;;;;5132492;27;20194;-69
2022/10/02 05:05:21;;;;;;;11.40;8.53;;;14.50;99.90;;;;;;5134810;27;20192;-69
2022/10/02 05:08:08;;;;;;;11.77;7.97;;;14.60;99.90;;;;;;5135189;27;20217;-69
2022/10/02 05:10:50;;;;;;;10.73;7.53;;;14.60;99.90;;;;;;5133570;27;20201;-70
2022/10/02 05:13:44;;;;;;;14.20;11.10;;;14.60;99.90;;;;;;5135073;27;20566;-68
2022/10/02 05:16:30;;;;;;;10.80;8.17;;;14.60;99.90;;;;;;5135245;27;20537;-70
2022/10/02 05:19:09;;;;;;;11.77;8.40;;;14.70;99.90;;;;;;5133548;27;20206;-69
2022/10/02 05:22:03;;;;;;;8.47;7.07;;;14.70;99.90;;;;;;5134656;27;20210;-70
2022/10/02 05:24:43;;;;;;;8.67;7.37;;;14.70;99.90;;;;;;5134726;27;20623;-70
2022/10/02 05:27:35;;;;;;;10.87;7.50;;;14.80;99.90;;;;;;5134481;27;20622;-70
2022/10/02 05:30:09;;;;;;;10.27;7.70;;;14.80;99.90;;;;;;5113631;28;20210;-71
2022/10/02 05:33:06;;;;;;;13.90;9.63;;;14.80;99.90;;;;;;5118433;27;20198;-71
2022/10/02 05:35:49;;;;;;;17.93;10.60;;;14.80;99.90;;;;;;5114705;27;20567;-69
2022/10/02 05:38:31;;;;;;;13.23;10.17;;;14.80;99.90;;;;;;5114080;28;20184;-71
2022/10/02 05:41:03;;;;;;;12.93;10.37;;;14.80;99.90;;;;;;5114232;28;20220;-71
2022/10/02 05:43:40;;;;;;;15.73;10.03;;;14.70;99.90;;;;;;5115519;27;20196;-69
2022/10/02 05:46:12;;;;;;;12.33;10.17;;;14.80;99.90;;;;;;5134776;27;20234;-69
2022/10/02 05:48:44;;;;;;;13.97;10.40;;;14.80;99.90;;;;;;5134702;27;20611;-69
2022/10/02 05:51:16;;;;;;;12.27;9.40;;;14.80;99.90;;;;;;5131803;27;20218;-70
2022/10/02 05:53:48;;;;;;;13.27;10.10;;;14.90;99.90;;;;;;5140738;27;20189;-70
2022/10/02 05:56:21;;;;;;;13.83;10.17;;;15.00;99.90;;;;;;5154687;27;20216;-69
2022/10/02 05:58:54;;;;;;;12.13;9.90;;;15.00;99.90;;;;;;5154441;27;20241;-71
2022/10/02 06:01:26;;;;;;;13.80;10.80;;;15.00;99.90;;;;;;5129896;27;20211;-69
2022/10/02 06:03:57;;;;;;;13.10;10.17;;;15.00;99.90;;;;;;5114036;28;20239;-70
2022/10/02 06:06:30;;;;;;;13.00;9.63;;;15.00;99.90;;;;;;5113274;28;20193;-69
2022/10/02 06:09:02;;;;;;;18.17;11.00;;;15.00;99.90;;;;;;5113626;28;20195;-69
2022/10/02 06:11:33;;;;;;;12.87;9.40;;;15.00;99.90;;;;;;5132078;27;20196;-69
2022/10/02 06:14:10;;;;;;;14.40;9.70;;;15.00;99.90;;;;;;5133453;27;20562;-70
2022/10/02 06:16:44;;;;;;;14.93;9.70;;;15.10;99.90;;;;;;5133471;27;20189;-71
2022/10/02 06:19:15;;;;;;;13.87;10.03;;;15.10;99.90;;;;;;5133128;27;20654;-70
2022/10/02 06:21:49;;;;;;;10.20;9.17;;;15.10;99.90;;;;;;5113261;28;20562;-70
2022/10/02 06:24:23;;;;;;;12.97;9.33;;;15.10;99.90;;;;;;5112877;28;20196;-69
2022/10/02 06:26:55;;;;;;;15.17;11.77;;;15.20;99.90;;;;;;5113375;28;20199;-69
2022/10/02 06:29:27;;;;;;;14.57;10.70;;;15.20;99.90;;;;;;5112787;27;20203;-69
2022/10/02 06:32:03;;;;;;;15.27;11.73;;;15.20;99.90;;;;;;5134139;27;20234;-70
2022/10/02 06:34:30;;;;;;;17.20;12.30;;;15.20;99.90;;;;;;5133388;27;20186;-70
2022/10/02 06:37:36;;;;;;;14.43;11.73;;;15.20;99.90;;;;;;5133537;27;20689;-71
2022/10/02 06:40:19;;;;;;;17.90;12.60;;;15.20;99.90;;;;;;5101345;27;20198;-70
2022/10/02 06:42:55;;;;;;;14.90;11.43;;;15.20;99.90;;;;;;5112749;28;20253;-70
2022/10/02 06:45:31;;;;;;;15.77;11.00;;;15.20;99.90;;;;;;5129933;27;20214;-71
2022/10/02 06:48:05;;;;;;;11.90;9.73;;;15.30;99.90;;;;;;5132772;27;20553;-70
2022/10/02 06:50:43;;;;;;;11.67;9.37;;;15.30;99.90;;;;;;5131863;27;20209;-71
2022/10/02 06:53:30;;;;;;;13.07;9.37;;;15.30;99.90;;;;;;5128939;27;20195;-69
2022/10/02 06:56:04;;;;;;;11.17;9.37;;;15.30;99.90;;;;;;5132979;27;20654;-70
2022/10/02 06:58:47;;;;;;;12.20;9.57;;;15.30;99.90;;;;;;5112408;28;20222;-69
2022/10/02 07:01:24;;;;;;;13.00;9.87;;;15.30;99.90;;;;;;5121746;27;20220;-69
2022/10/02 07:04:12;;;;;;;11.63;9.10;;;15.40;99.90;;;;;;5132716;27;20186;-69
2022/10/02 07:06:57;;;;;;;11.23;8.83;;;15.40;99.90;;;;;;5131525;27;20239;-69
2022/10/02 07:09:39;;;;;;;10.83;9.00;;;15.40;99.90;;;;;;5126926;27;20203;-69
2022/10/02 07:12:27;;;;;;;12.73;8.77;;;15.40;99.90;;;;;;5125450;27;20547;-69
2022/10/02 07:15:21;;;;;;;11.30;9.30;;;15.40;99.90;;;;;;5135781;27;20264;-70
2022/10/02 07:17:57;;;;;;;13.30;9.27;;;15.40;99.90;;;;;;5100543;28;20204;-70
2022/10/02 07:20:44;;;;;;;11.90;8.83;;;15.40;99.90;;;;;;5112110;28;20625;-69
2022/10/02 07:23:41;;;;;;;10.97;8.87;;;15.50;99.90;;;;;;5049239;28;20677;-70
2022/10/02 07:26:40;;;;;;;12.83;9.30;;;15.50;99.90;;;;;;5005504;28;20236;-69
2022/10/02 07:29:31;;;;;;;12.90;9.97;;;15.50;99.90;;;;;;5042358;28;20203;-71
2022/10/02 07:32:15;;;;;;;14.53;11.07;;;15.50;99.90;;;;;;5058674;28;20225;-71
2022/10/02 07:34:54;;;;;;;13.10;10.33;;;15.50;99.90;;;;;;5068344;28;20219;-70
2022/10/02 07:37:32;;;;;;;14.40;10.17;;;15.40;99.90;;;;;;5069029;28;20701;-69
2022/10/02 07:40:18;;;;;;;11.53;9.57;;;15.40;99.90;;;;;;5067840;28;20723;-69
2022/10/02 07:42:58;;;;;;;14.60;10.63;;;15.40;99.90;;;;;;5068834;28;20261;-69
2022/10/02 07:45:36;;;;;;;15.50;11.07;;;15.40;99.90;;;;;;5069072;28;20193;-72
2022/10/02 07:48:28;;;;;;;14.90;11.20;;;15.40;99.90;;;;;;5068890;28;20208;-71
2022/10/02 07:51:45;;;;;;;15.93;12.00;;;15.40;99.90;;;;;;5067200;28;20205;-71
2022/10/02 07:54:02;;;;;;;15.60;12.53;;;15.40;99.90;;;;;;5089314;28;20233;-69
2022/10/02 07:56:30;;;;;;;17.03;12.90;;;15.30;99.90;;;;;;5132263;28;20198;-69
2022/10/02 07:59:03;;;;;;;20.47;15.50;;;15.40;99.90;;;;;;5130698;28;20243;-70
2022/10/02 08:01:35;;;;;;;18.80;14.57;;;15.40;99.90;;;;;;5130406;28;20226;-69
2022/10/02 08:04:05;;;;;;;22.53;15.77;;;15.30;99.90;;;;;;5131816;28;20545;-70
2022/10/02 08:06:33;;;;;;;20.63;14.50;;;15.30;99.90;;;;;;5132831;28;20239;-70
2022/10/02 08:09:06;;;;;;;17.50;13.47;;;15.30;99.90;;;;;;5119517;28;20287;-71
2022/10/02 08:11:38;;;;;;;18.97;13.20;;;15.30;99.90;;;;;;5122188;28;20192;-72
2022/10/02 08:14:08;;;;;;;16.47;12.37;;;15.30;99.90;;;;;;5116972;28;20771;-72
2022/10/02 08:16:42;;;;;;;17.73;12.57;;;15.30;99.90;;;;;;5116678;28;20282;-68
2022/10/02 08:19:15;;;;;;;18.60;11.97;;;15.30;99.90;;;;;;5116755;27;20191;-71
2022/10/02 08:21:47;;;;;;;17.60;12.47;;;15.40;99.90;;;;;;5115081;27;20252;-70
2022/10/02 08:24:17;;;;;;;20.03;12.90;;;15.40;99.90;;;;;;5115162;28;20576;-69
2022/10/02 08:26:49;;;;;;;14.77;11.30;;;15.40;99.90;;;;;;5114839;28;20205;-69
2022/10/02 08:29:23;;;;;;;14.97;11.47;;;15.50;99.90;;;;;;5117307;27;20282;-70
2022/10/02 08:31:53;;;;;;;12.10;10.27;;;15.60;99.90;;;;;;5131286;27;20199;-69
2022/10/02 08:34:21;;;;;;;13.20;9.50;;;15.60;99.90;;;;;;5135768;27;20208;-70
2022/10/02 08:37:12;;;;;;;12.43;9.50;;;15.60;99.90;;;;;;5135927;27;20235;-72
2022/10/02 08:39:57;;;;;;;9.97;8.17;;;15.70;99.90;;;;;;5134408;27;20242;-70
2022/10/02 08:42:56;;;;;;;8.87;7.27;;;15.80;99.90;;;;;;5135536;27;20214;-69
2022/10/02 08:45:55;;;;;;;8.27;7.27;;;15.80;99.90;;;;;;5135341;27;20520;-70
2022/10/02 08:49:16;;;;;;;8.07;6.67;;;15.80;99.90;;;;;;5084050;27;20214;-69
2022/10/02 08:52:43;;;;;;;6.83;5.57;;;15.80;99.90;;;;;;5032298;27;20200;-69
2022/10/02 08:55:49;;;;;;;5.93;4.70;;;15.90;99.90;;;;;;5132473;27;20237;-67
2022/10/02 08:58:58;;;;;;;4.93;4.43;;;15.90;99.90;;;;;;5135153;27;20235;-69
2022/10/02 09:01:59;;;;;;;4.40;3.90;;;15.90;99.90;;;;;;5135470;27;20216;-69
2022/10/02 09:05:18;;;;;;;4.50;3.87;;;15.90;99.90;;;;;;5135215;27;20211;-69
2022/10/02 09:08:27;;;;;;;5.00;4.00;;;16.00;99.90;;;;;;5092883;28;20211;-69
2022/10/02 09:11:26;;;;;;;5.80;4.97;;;15.90;99.90;;;;;;5114465;28;20199;-70
2022/10/02 09:14:11;;;;;;;3.30;3.00;;;15.90;99.90;;;;;;5114474;28;20196;-70
2022/10/02 09:17:09;;;;;;;3.43;3.10;;;15.90;99.90;;;;;;5114022;27;20204;-71
2022/10/02 09:19:59;;;;;;;3.23;2.60;;;15.80;99.90;;;;;;5113938;28;20183;-69
2022/10/02 09:23:13;;;;;;;2.73;2.50;;;15.80;99.90;;;;;;5114332;28;20215;-72
2022/10/02 09:25:48;;;;;;;2.87;2.17;;;15.70;99.90;;;;;;5122255;27;20206;-69
2022/10/02 09:28:51;;;;;;;2.63;2.10;;;15.60;99.90;;;;;;5134677;27;20283;-70
2022/10/02 09:32:03;;;;;;;2.33;2.10;;;15.60;99.90;;;;;;5096651;27;20209;-69
2022/10/02 09:34:57;;;;;;;2.17;1.97;;;15.60;99.90;;;;;;5031026;28;20210;-72
2022/10/02 09:37:52;;;;;;;3.20;2.10;;;15.70;99.90;;;;;;5017329;28;20213;-69
2022/10/02 09:40:53;;;;;;;2.00;1.90;;;15.70;99.90;;;;;;5011280;28;20209;-69
2022/10/02 09:43:51;;;;;;;4.83;1.80;;;15.70;99.90;;;;;;5011267;28;20218;-69
2022/10/02 09:46:51;;;;;;;3.93;1.93;;;15.80;99.90;;;;;;4995978;28;20305;-69
2022/10/02 09:49:41;;;;;;;2.80;1.90;;;15.90;99.90;;;;;;5023949;28;20339;-69
2022/10/02 09:52:47;;;;;;;2.03;1.93;;;16.00;99.90;;;;;;5031059;28;20211;-70
2022/10/02 09:55:50;;;;;;;2.77;2.00;;;16.10;99.90;;;;;;5029543;28;20208;-70
2022/10/02 09:59:07;;;;;;;2.40;2.20;;;16.20;99.90;;;;;;5020651;28;20736;-69
2022/10/02 10:01:58;;;;;;;4.77;2.83;;;16.30;99.90;;;;;;5030139;28;20192;-68
2022/10/02 10:04:57;;;;;;;2.73;2.03;;;16.30;99.90;;;;;;5044820;27;20210;-70
2022/10/02 10:07:58;;;;;;;2.40;2.20;;;16.30;99.90;;;;;;5123455;27;20205;-70
2022/10/02 10:10:53;;;;;;;3.00;2.07;;;16.30;99.90;;;;;;5064617;28;20201;-69
2022/10/02 10:13:55;;;;;;;4.20;2.40;;;16.20;99.90;;;;;;5113839;27;20183;-70
2022/10/02 10:16:45;;;;;;;2.47;2.27;;;16.20;99.90;;;;;;5134080;27;20212;-69
2022/10/02 10:19:50;;;;;;;2.60;2.40;;;16.20;99.90;;;;;;5133607;27;20188;-70
2022/10/02 10:22:44;;;;;;;2.73;2.17;;;16.20;99.90;;;;;;5133303;27;20232;-68
2022/10/02 10:25:50;;;;;;;2.90;1.90;;;16.20;99.90;;;;;;5114835;27;20201;-69
2022/10/02 10:28:54;;;;;;;4.60;2.03;;;16.10;99.90;;;;;;5112641;28;20219;-69
2022/10/02 10:32:00;;;;;;;5.27;3.53;;;16.00;99.90;;;;;;5115436;27;20200;-72
2022/10/02 10:35:03;;;;;;;2.20;2.00;;;15.80;99.90;;;;;;5097722;27;20196;-71
2022/10/02 10:41:21;;;;;;;1.87;1.43;;;15.40;99.90;;;;;;5090560;28;20677;-71
2022/10/02 10:44:20;;;;;;;1.83;1.60;;;15.20;99.90;;;;;;5129667;27;20210;-70
2022/10/02 10:47:07;;;;;;;4.47;1.87;;;15.10;99.90;;;;;;5122340;27;20570;-69
2022/10/02 10:50:01;;;;;;;2.13;1.50;;;15.00;99.90;;;;;;5122853;27;20734;-68
2022/10/02 10:52:46;;;;;;;2.93;1.60;;;14.90;99.90;;;;;;5112380;28;20199;-70
2022/10/02 10:55:18;;;;;;;3.20;1.40;;;14.80;99.90;;;;;;5112697;28;20287;-70
2022/10/02 10:57:59;;;;;;;2.63;1.60;;;14.60;99.90;;;;;;5112472;28;20192;-71
2022/10/02 11:00:33;;;;;;;3.53;1.50;;;14.50;99.90;;;;;;5111607;28;20315;-70
2022/10/02 11:03:20;;;;;;;1.90;1.30;;;14.40;99.90;;;;;;5111955;28;20207;-73
2022/10/02 11:06:20;;;;;;;1.30;1.20;;;14.20;99.90;;;;;;5111632;28;20203;-68
2022/10/02 11:09:21;;;;;;;1.40;1.30;;;14.20;99.90;;;;;;5111960;28;20643;-70
2022/10/02 11:12:03;;;;;;;2.37;1.60;;;14.10;99.90;;;;;;5093471;28;20198;-71
2022/10/02 11:14:43;;;;;;;4.30;1.40;;;14.00;99.90;;;;;;5123246;28;20190;-70
2022/10/02 11:17:34;;;;;;;3.37;1.40;;;13.90;99.90;;;;;;5121543;28;20191;-70
2022/10/02 11:20:19;;;;;;;1.40;1.30;;;13.90;99.90;;;;;;5120000;28;20202;-70
2022/10/02 11:23:05;;;;;;;1.87;1.50;;;13.80;99.90;;;;;;5108549;28;20255;-69
2022/10/02 11:25:55;;;;;;;1.60;1.50;;;13.80;99.90;;;;;;5127874;28;20549;-69
2022/10/02 11:28:55;;;;;;;1.83;1.57;;;13.70;99.90;;;;;;5113995;28;20574;-68
2022/10/02 11:31:34;;;;;;;4.30;1.53;;;13.70;99.90;;;;;;5114857;28;20198;-70
2022/10/02 11:34:39;;;;;;;3.10;1.40;;;13.60;99.90;;;;;;5114729;28;20190;-72
2022/10/02 11:37:19;;;;;;;5.83;1.90;;;13.50;99.90;;;;;;5119299;28;20248;-70
2022/10/02 11:40:12;;;;;;;2.00;1.60;;;13.50;99.90;;;;;;5120523;28;20279;-69
2022/10/02 11:42:54;;;;;;;2.00;1.60;;;13.50;99.90;;;;;;5111375;28;20211;-70
2022/10/02 11:45:59;;;;;;;1.30;1.20;;;13.40;99.90;;;;;;5112589;28;20640;-70
2022/10/02 11:48:55;;;;;;;2.50;2.00;;;13.30;99.90;;;;;;5080124;27;20226;-70
2022/10/02 11:51:45;;;;;;;1.53;1.40;;;13.20;99.90;;;;;;5127663;28;20582;-71
2022/10/02 11:54:31;;;;;;;3.10;1.30;;;13.00;99.90;;;;;;5121028;27;20217;-71
2022/10/02 11:57:18;;;;;;;4.10;1.53;;;13.00;99.90;;;;;;5124615;27;20199;-71
2022/10/02 12:00:04;;;;;;;2.93;1.67;;;12.90;99.90;;;;;;5115931;28;20264;-71
2022/10/02 12:02:37;;;;;;;1.87;1.23;;;12.90;99.90;;;;;;5115218;28;20204;-70
2022/10/02 12:05:20;;;;;;;1.87;1.60;;;12.80;99.90;;;;;;5122254;27;20209;-71
2022/10/02 12:08:00;;;;;;;1.97;1.60;;;12.80;99.90;;;;;;5127596;27;20230;-70
2022/10/02 12:10:42;;;;;;;1.23;1.13;;;12.70;99.90;;;;;;5134862;27;20230;-71
2022/10/02 12:13:28;;;;;;;1.37;1.20;;;12.60;99.90;;;;;;5135158;27;20194;-71
2022/10/02 12:16:05;;;;;;;3.27;1.20;;;12.60;99.90;;;;;;5131768;27;20299;-69
2022/10/02 12:18:47;;;;;;;2.67;1.20;;;12.60;99.90;;;;;;5128283;27;20222;-70
2022/10/02 12:27:15;;;;;;;2.63;1.00;;;12.70;99.90;;;;;;5132466;27;20711;-69
2022/10/02 12:29:51;;;;;;;4.27;2.40;;;12.60;99.90;;;;;;5119126;27;20198;-68
2022/10/02 12:32:31;;;;;;;2.50;1.20;;;12.60;99.90;;;;;;5125559;27;20190;-69
2022/10/02 12:35:14;;;;;;;1.40;1.30;;;12.60;99.90;;;;;;5126255;27;20205;-70
2022/10/02 12:37:49;;;;;;;1.20;1.10;;;12.60;99.90;;;;;;5116995;27;20601;-69
2022/10/02 12:40:23;;;;;;;4.40;1.10;;;12.60;99.90;;;;;;5115426;28;20206;-68
2022/10/02 12:43:09;;;;;;;2.10;1.20;;;12.60;99.90;;;;;;5118562;27;20207;-71
2022/10/02 12:46:12;;;;;;;2.93;1.50;;;12.50;99.90;;;;;;5133573;27;20275;-69
2022/10/02 12:49:02;;;;;;;1.63;1.20;;;12.50;99.90;;;;;;5119732;27;20210;-72
2022/10/02 12:51:35;;;;;;;3.87;1.77;;;12.60;99.90;;;;;;5135318;27;20230;-69
2022/10/02 12:54:39;;;;;;;3.57;1.20;;;12.60;99.90;;;;;;5115950;27;20559;-68
2022/10/02 12:57:54;;;;;;;3.03;1.30;;;12.50;99.90;;;;;;5123156;27;20194;-71
2022/10/02 13:00:23;;;;;;;1.73;1.10;;;12.50;99.90;;;;;;5135279;27;20280;-70
2022/10/02 13:03:24;;;;;;;1.00;1.00;;;12.50;99.90;;;;;;5124649;27;20222;-69
2022/10/02 13:06:23;;;;;;;2.30;1.60;;;12.40;99.90;;;;;;5114449;28;20717;-68
2022/10/02 13:09:05;;;;;;;1.00;1.00;;;12.40;99.90;;;;;;5115057;28;20199;-69
2022/10/02 13:11:41;;;;;;;1.50;1.30;;;12.40;99.90;;;;;;5114865;28;20202;-69
2022/10/02 13:14:37;;;;;;;1.30;1.20;;;12.40;99.90;;;;;;5115164;27;20633;-68
2022/10/02 13:17:27;;;;;;;1.27;1.17;;;12.30;99.90;;;;;;5114348;28;20203;-68
2022/10/02 13:20:03;;;;;;;1.40;1.20;;;12.40;99.90;;;;;;5119891;27;20193;-68
2022/10/02 13:22:39;;;;;;;4.80;2.80;;;12.40;99.90;;;;;;5135041;27;20190;-68
2022/10/02 13:25:31;;;;;;;1.60;1.23;;;12.30;99.90;;;;;;5134982;27;20201;-69
2022/10/02 13:28:13;;;;;;;1.20;1.10;;;12.30;99.90;;;;;;5135172;27;20236;-68
2022/10/02 13:30:47;;;;;;;1.63;1.10;;;12.30;99.90;;;;;;5133909;27;20258;-69
2022/10/02 13:33:38;;;;;;;2.83;1.40;;;12.30;99.90;;;;;;5134410;27;20187;-71
2022/10/02 13:36:17;;;;;;;3.17;1.10;;;12.30;99.90;;;;;;5121926;27;20206;-69
2022/10/02 13:39:13;;;;;;;1.60;1.00;;;12.30;99.90;;;;;;5125774;27;20552;-68
2022/10/02 13:41:54;;;;;;;3.60;2.00;;;12.30;99.90;;;;;;5129306;27;20191;-69
2022/10/02 13:44:34;;;;;;;2.07;1.10;;;12.20;99.90;;;;;;5124126;27;20658;-69
2022/10/02 13:47:23;;;;;;;2.37;1.37;;;12.20;99.90;;;;;;5123346;27;20201;-69
2022/10/02 13:50:07;;;;;;;1.30;1.20;;;12.20;99.90;;;;;;5131442;27;20223;-69
2022/10/02 13:52:42;;;;;;;1.00;1.00;;;12.20;99.90;;;;;;5133534;27;20211;-69
2022/10/02 13:55:21;;;;;;;1.73;1.30;;;12.10;99.90;;;;;;5134338;27;20198;-68
2022/10/02 13:58:20;;;;;;;3.37;1.07;;;12.10;99.90;;;;;;5129241;27;20215;-69
2022/10/02 14:00:57;;;;;;;1.23;1.13;;;12.10;99.90;;;;;;5103561;27;20195;-70
2022/10/02 14:03:37;;;;;;;2.40;1.27;;;12.20;99.90;;;;;;5122970;27;20207;-69